sensor_id;sensor_type;location;lat;lon;timestamp;temperature;humidity
9941;DHT22;5009;50.656;7.188;2023-10-13T04:02:38;17.60;99.90
9941;DHT22;5009;50.656;7.188;2023-10-13T04:05:11;17.60;99.90
9941;DHT22;5009;50.656;7.188;2023-10-13T04:08:04;17.60;99.90
9941;DHT22;5009;50.656;7.188;2023-10-13T04:10:49;17.60;99.90
9941;DHT22;5009;50.656;7.188;2023-10-13T04:13:17;17.60;99.90
9941;DHT22;5009;50.656;7.188;2023-10-13T04:16:03;17.60;99.90
9941;DHT22;5009;50.656;7.188;2023-10-13T04:19:00;17.60;99.90
9941;DHT22;5009;50.656;7.188;2023-10-13T04:21:26;17.60;99.90
9941;DHT22;5009;50.656;7.188;2023-10-13T04:24:12;17.70;99.90
9941;DHT22;5009;50.656;7.188;2023-10-13T04:26:48;17.70;99.90
9941;DHT22;5009;50.656;7.188;2023-10-13T04:29:33;17.70;99.90
9941;DHT22;5009;50.656;7.188;2023-10-13T04:32:15;17.70;99.90
9941;DHT22;5009;50.656;7.188;2023-10-13T04:34:44;17.80;99.90
9941;DHT22;5009;50.656;7.188;2023-10-13T04:37:17;17.80;99.90
9941;DHT22;5009;50.656;7.188;2023-10-13T04:39:54;17.80;99.90
9941;DHT22;5009;50.656;7.188;2023-10-13T04:42:25;17.80;99.90
9941;DHT22;5009;50.656;7.188;2023-10-13T04:45:16;17.80;99.90
9941;DHT22;5009;50.656;7.188;2023-10-13T04:47:59;17.80;99.90
9941;DHT22;5009;50.656;7.188;2023-10-13T04:50:45;17.80;99.90
9941;DHT22;5009;50.656;7.188;2023-10-13T04:53:15;17.90;99.90
9941;DHT22;5009;50.656;7.188;2023-10-13T04:55:58;17.90;99.90
9941;DHT22;5009;50.656;7.188;2023-10-13T04:58:27;17.90;99.90
9941;DHT22;5009;50.656;7.188;2023-10-13T05:01:02;17.90;99.90
9941;DHT22;5009;50.656;7.188;2023-10-13T05:03:46;17.90;99.90
9941;DHT22;5009;50.656;7.188;2023-10-13T05:06:19;17.90;99.90
9941;DHT22;5009;50.656;7.188;2023-10-13T05:09:03;17.90;99.90
9941;DHT22;5009;50.656;7.188;2023-10-13T05:11:47;17.90;99.90
9941;DHT22;5009;50.656;7.188;2023-10-13T05:14:31;17.90;99.90
9941;DHT22;5009;50.656;7.188;2023-10-13T05:17:15;17.90;99.90
9941;DHT22;5009;50.656;7.188;2023-10-13T05:20:00;17.90;99.90
9941;DHT22;5009;50.656;7.188;2023-10-13T05:22:44;17.90;99.90
9941;DHT22;5009;50.656;7.188;2023-10-13T05:25:28;17.90;99.90
9941;DHT22;5009;50.656;7.188;2023-10-13T05:28:12;18.00;99.90
9941;DHT22;5009;50.656;7.188;2023-10-13T05:30:59;18.00;99.90
9941;DHT22;5009;50.656;7.188;2023-10-13T05:33:43;18.00;99.90
9941;DHT22;5009;50.656;7.188;2023-10-13T05:36:38;18.00;99.90
9941;DHT22;5009;50.656;7.188;2023-10-13T05:39:23;18.00;99.90
9941;DHT22;5009;50.656;7.188;2023-10-13T05:42:07;18.10;99.90
9941;DHT22;5009;50.656;7.188;2023-10-13T05:44:51;18.10;99.90
9941;DHT22;5009;50.656;7.188;2023-10-13T05:47:35;18.00;99.90
9941;DHT22;5009;50.656;7.188;2023-10-13T05:50:16;18.10;99.90
9941;DHT22;5009;50.656;7.188;2023-10-13T05:52:46;18.10;99.90
9941;DHT22;5009;50.656;7.188;2023-10-13T05:55:27;18.10;99.90
9941;DHT22;5009;50.656;7.188;2023-10-13T05:58:12;18.10;99.90
9941;DHT22;5009;50.656;7.188;2023-10-13T06:00:56;18.10;99.90
9941;DHT22;5009;50.656;7.188;2023-10-13T06:03:41;18.10;99.90
9941;DHT22;5009;50.656;7.188;2023-10-13T06:06:25;18.20;99.90
9941;DHT22;5009;50.656;7.188;2023-10-13T06:09:09;18.20;99.90
9941;DHT22;5009;50.656;7.188;2023-10-13T06:11:53;18.20;99.90
9941;DHT22;5009;50.656;7.188;2023-10-13T06:14:38;18.30;99.90
9941;DHT22;5009;50.656;7.188;2023-10-13T06:17:22;18.30;99.90
9941;DHT22;5009;50.656;7.188;2023-10-13T06:20:07;18.30;99.90
9941;DHT22;5009;50.656;7.188;2023-10-13T06:23:11;18.30;99.90
9941;DHT22;5009;50.656;7.188;2023-10-13T06:25:56;18.30;99.90
9941;DHT22;5009;50.656;7.188;2023-10-13T06:28:40;18.30;99.90
9941;DHT22;5009;50.656;7.188;2023-10-13T06:31:07;18.40;99.90
9941;DHT22;5009;50.656;7.188;2023-10-13T06:33:36;18.40;99.90
9941;DHT22;5009;50.656;7.188;2023-10-13T06:36:10;18.40;99.90
9941;DHT22;5009;50.656;7.188;2023-10-13T06:38:37;18.40;99.90
9941;DHT22;5009;50.656;7.188;2023-10-13T06:41:03;18.40;99.90
9941;DHT22;5009;50.656;7.188;2023-10-13T06:43:37;18.40;99.90
9941;DHT22;5009;50.656;7.188;2023-10-13T06:46:09;18.40;99.90
9941;DHT22;5009;50.656;7.188;2023-10-13T06:48:40;18.50;99.90
9941;DHT22;5009;50.656;7.188;2023-10-13T06:51:06;18.50;99.90
9941;DHT22;5009;50.656;7.188;2023-10-13T06:53:47;18.60;99.90
9941;DHT22;5009;50.656;7.188;2023-10-13T06:56:16;18.60;99.90
9941;DHT22;5009;50.656;7.188;2023-10-13T06:58:53;18.60;99.90
9941;DHT22;5009;50.656;7.188;2023-10-13T07:01:28;18.60;99.90
9941;DHT22;5009;50.656;7.188;2023-10-13T07:03:53;18.60;99.90
9941;DHT22;5009;50.656;7.188;2023-10-13T07:06:20;18.70;99.90
9941;DHT22;5009;50.656;7.188;2023-10-13T07:08:49;18.70;99.90
9941;DHT22;5009;50.656;7.188;2023-10-13T07:11:26;18.70;99.90
9941;DHT22;5009;50.656;7.188;2023-10-13T07:14:03;18.70;99.90
9941;DHT22;5009;50.656;7.188;2023-10-13T07:17:05;18.80;99.90
9941;DHT22;5009;50.656;7.188;2023-10-13T07:19:32;18.70;99.90
9941;DHT22;5009;50.656;7.188;2023-10-13T07:22:00;18.80;99.90
9941;DHT22;5009;50.656;7.188;2023-10-13T07:24:45;18.80;99.90
9941;DHT22;5009;50.656;7.188;2023-10-13T07:27:20;18.90;99.90
9941;DHT22;5009;50.656;7.188;2023-10-13T07:29:57;19.00;99.90
9941;DHT22;5009;50.656;7.188;2023-10-13T07:32:42;19.00;99.90
9941;DHT22;5009;50.656;7.188;2023-10-13T07:35:12;19.10;99.90
9941;DHT22;5009;50.656;7.188;2023-10-13T07:37:39;19.10;99.90
9941;DHT22;5009;50.656;7.188;2023-10-13T07:40:08;19.20;99.90
9941;DHT22;5009;50.656;7.188;2023-10-13T07:42:47;19.30;99.90
9941;DHT22;5009;50.656;7.188;2023-10-13T07:45:14;19.30;99.90
9941;DHT22;5009;50.656;7.188;2023-10-13T07:47:43;19.40;99.90
9941;DHT22;5009;50.656;7.188;2023-10-13T07:50:09;19.40;99.90
9941;DHT22;5009;50.656;7.188;2023-10-13T07:52:35;19.40;99.90
9941;DHT22;5009;50.656;7.188;2023-10-13T07:55:06;19.40;99.90
9941;DHT22;5009;50.656;7.188;2023-10-13T07:57:39;19.40;99.90
9941;DHT22;5009;50.656;7.188;2023-10-13T08:00:25;19.40;99.90
9941;DHT22;5009;50.656;7.188;2023-10-13T08:03:03;19.40;99.90
9941;DHT22;5009;50.656;7.188;2023-10-13T08:05:34;19.40;99.90
9941;DHT22;5009;50.656;7.188;2023-10-13T08:08:19;19.40;99.90
9941;DHT22;5009;50.656;7.188;2023-10-13T08:10:44;19.50;99.90
9941;DHT22;5009;50.656;7.188;2023-10-13T08:13:11;19.50;99.90
9941;DHT22;5009;50.656;7.188;2023-10-13T08:15:42;19.60;99.90
9941;DHT22;5009;50.656;7.188;2023-10-13T08:18:15;19.60;99.90
9941;DHT22;5009;50.656;7.188;2023-10-13T08:21:02;19.70;99.90
9941;DHT22;5009;50.656;7.188;2023-10-13T08:23:41;19.70;99.90
9941;DHT22;5009;50.656;7.188;2023-10-13T08:26:19;19.80;99.90
9941;DHT22;5009;50.656;7.188;2023-10-13T08:29:16;19.90;99.90
9941;DHT22;5009;50.656;7.188;2023-10-13T08:31:49;20.00;99.90
9941;DHT22;5009;50.656;7.188;2023-10-13T08:34:47;20.00;99.90
9941;DHT22;5009;50.656;7.188;2023-10-13T08:37:13;20.00;99.90
9941;DHT22;5009;50.656;7.188;2023-10-13T08:39:56;20.00;99.90
9941;DHT22;5009;50.656;7.188;2023-10-13T08:42:35;20.00;99.90
9941;DHT22;5009;50.656;7.188;2023-10-13T08:45:11;20.10;99.90
9941;DHT22;5009;50.656;7.188;2023-10-13T08:48:07;20.10;99.90
9941;DHT22;5009;50.656;7.188;2023-10-13T08:50:37;20.10;99.90
9941;DHT22;5009;50.656;7.188;2023-10-13T08:53:22;20.00;99.90
9941;DHT22;5009;50.656;7.188;2023-10-13T08:56:04;20.00;99.90
9941;DHT22;5009;50.656;7.188;2023-10-13T08:58:35;20.00;99.90
9941;DHT22;5009;50.656;7.188;2023-10-13T09:01:28;20.00;99.90
9941;DHT22;5009;50.656;7.188;2023-10-13T09:04:06;20.00;99.90
9941;DHT22;5009;50.656;7.188;2023-10-13T09:06:53;20.00;99.90
9941;DHT22;5009;50.656;7.188;2023-10-13T09:09:49;20.00;99.90
9941;DHT22;5009;50.656;7.188;2023-10-13T09:12:25;19.90;99.90
9941;DHT22;5009;50.656;7.188;2023-10-13T09:15:10;19.90;99.90
9941;DHT22;5009;50.656;7.188;2023-10-13T09:17:46;19.90;99.90
9941;DHT22;5009;50.656;7.188;2023-10-13T09:20:38;19.90;99.90
9941;DHT22;5009;50.656;7.188;2023-10-13T09:23:11;20.00;99.90
9941;DHT22;5009;50.656;7.188;2023-10-13T09:25:50;20.00;99.90
9941;DHT22;5009;50.656;7.188;2023-10-13T09:28:20;20.00;99.90
9941;DHT22;5009;50.656;7.188;2023-10-13T09:30:52;20.10;99.90
9941;DHT22;5009;50.656;7.188;2023-10-13T09:33:26;20.20;99.90
9941;DHT22;5009;50.656;7.188;2023-10-13T09:36:15;20.30;99.90
9941;DHT22;5009;50.656;7.188;2023-10-13T09:38:42;20.40;99.90
9941;DHT22;5009;50.656;7.188;2023-10-13T09:41:29;20.50;99.90
9941;DHT22;5009;50.656;7.188;2023-10-13T09:43:57;20.50;99.90
9941;DHT22;5009;50.656;7.188;2023-10-13T09:46:26;20.60;99.90
9941;DHT22;5009;50.656;7.188;2023-10-13T09:49:10;20.60;99.90
9941;DHT22;5009;50.656;7.188;2023-10-13T09:51:40;20.60;99.90
9941;DHT22;5009;50.656;7.188;2023-10-13T09:54:26;20.70;99.90
9941;DHT22;5009;50.656;7.188;2023-10-13T09:56:57;20.70;99.90
9941;DHT22;5009;50.656;7.188;2023-10-13T09:59:43;20.80;99.90
9941;DHT22;5009;50.656;7.188;2023-10-13T10:02:15;20.80;99.90
9941;DHT22;5009;50.656;7.188;2023-10-13T10:04:54;20.90;99.90
9941;DHT22;5009;50.656;7.188;2023-10-13T10:07:28;21.00;99.90
9941;DHT22;5009;50.656;7.188;2023-10-13T10:09:57;21.10;99.90
9941;DHT22;5009;50.656;7.188;2023-10-13T10:15:35;21.30;99.90
9941;DHT22;5009;50.656;7.188;2023-10-13T10:18:02;21.40;99.90
9941;DHT22;5009;50.656;7.188;2023-10-13T10:23:25;21.50;99.90
9941;DHT22;5009;50.656;7.188;2023-10-13T10:25:54;21.50;99.90
9941;DHT22;5009;50.656;7.188;2023-10-13T10:28:38;21.60;99.90
9941;DHT22;5009;50.656;7.188;2023-10-13T10:31:05;21.70;99.90
9941;DHT22;5009;50.656;7.188;2023-10-13T10:33:34;21.70;99.90
9941;DHT22;5009;50.656;7.188;2023-10-13T10:36:00;21.80;99.90
9941;DHT22;5009;50.656;7.188;2023-10-13T10:38:26;22.00;99.90
9941;DHT22;5009;50.656;7.188;2023-10-13T10:41:00;22.00;99.90
9941;DHT22;5009;50.656;7.188;2023-10-13T10:43:36;22.10;99.90
9941;DHT22;5009;50.656;7.188;2023-10-13T10:48:36;22.30;99.90
9941;DHT22;5009;50.656;7.188;2023-10-13T10:51:04;22.40;99.90
9941;DHT22;5009;50.656;7.188;2023-10-13T10:53:34;22.50;99.90
9941;DHT22;5009;50.656;7.188;2023-10-13T10:56:10;22.50;99.90
9941;DHT22;5009;50.656;7.188;2023-10-13T10:58:56;22.60;99.90
9941;DHT22;5009;50.656;7.188;2023-10-13T11:01:23;22.60;99.90
9941;DHT22;5009;50.656;7.188;2023-10-13T11:04:03;22.70;99.90
9941;DHT22;5009;50.656;7.188;2023-10-13T11:06:46;22.70;99.90
9941;DHT22;5009;50.656;7.188;2023-10-13T11:09:12;22.80;99.90
9941;DHT22;5009;50.656;7.188;2023-10-13T11:14:39;23.00;99.90
9941;DHT22;5009;50.656;7.188;2023-10-13T11:17:05;23.00;99.90
9941;DHT22;5009;50.656;7.188;2023-10-13T11:19:35;23.00;99.90
9941;DHT22;5009;50.656;7.188;2023-10-13T11:22:16;23.00;99.90
9941;DHT22;5009;50.656;7.188;2023-10-13T11:24:57;23.00;99.90
9941;DHT22;5009;50.656;7.188;2023-10-13T11:27:30;23.00;99.90
9941;DHT22;5009;50.656;7.188;2023-10-13T11:30:11;23.10;99.90
9941;DHT22;5009;50.656;7.188;2023-10-13T11:32:43;23.20;99.30
9941;DHT22;5009;50.656;7.188;2023-10-13T11:35:11;23.20;99.10
9941;DHT22;5009;50.656;7.188;2023-10-13T11:38:00;23.20;99.20
9941;DHT22;5009;50.656;7.188;2023-10-13T11:40:37;23.20;98.40
9941;DHT22;5009;50.656;7.188;2023-10-13T11:43:12;23.20;98.20
9941;DHT22;5009;50.656;7.188;2023-10-13T11:45:41;23.20;97.30
9941;DHT22;5009;50.656;7.188;2023-10-13T11:48:25;23.10;97.20
9941;DHT22;5009;50.656;7.188;2023-10-13T11:51:01;23.10;97.00
9941;DHT22;5009;50.656;7.188;2023-10-13T11:53:33;23.10;96.60
9941;DHT22;5009;50.656;7.188;2023-10-13T11:55:59;23.10;95.80
9941;DHT22;5009;50.656;7.188;2023-10-13T11:58:25;23.10;96.10
9941;DHT22;5009;50.656;7.188;2023-10-13T12:00:50;23.10;96.00
9941;DHT22;5009;50.656;7.188;2023-10-13T12:03:16;23.10;95.70
9941;DHT22;5009;50.656;7.188;2023-10-13T12:06:01;23.10;95.30
9941;DHT22;5009;50.656;7.188;2023-10-13T12:09:09;23.20;95.10
9941;DHT22;5009;50.656;7.188;2023-10-13T12:11:44;23.20;94.70
9941;DHT22;5009;50.656;7.188;2023-10-13T12:14:14;23.20;95.00
9941;DHT22;5009;50.656;7.188;2023-10-13T12:16:47;23.30;94.70
9941;DHT22;5009;50.656;7.188;2023-10-13T12:19:20;23.40;94.90
9941;DHT22;5009;50.656;7.188;2023-10-13T12:21:49;23.40;94.50
9941;DHT22;5009;50.656;7.188;2023-10-13T12:24:15;23.60;94.50
9941;DHT22;5009;50.656;7.188;2023-10-13T12:26:56;23.70;93.90
9941;DHT22;5009;50.656;7.188;2023-10-13T12:29:25;23.70;94.00
9941;DHT22;5009;50.656;7.188;2023-10-13T12:31:57;23.70;92.60
9941;DHT22;5009;50.656;7.188;2023-10-13T12:34:38;23.70;93.50
9941;DHT22;5009;50.656;7.188;2023-10-13T12:37:23;23.70;93.40
9941;DHT22;5009;50.656;7.188;2023-10-13T12:40:05;23.70;93.40
9941;DHT22;5009;50.656;7.188;2023-10-13T12:42:50;23.80;93.60
9941;DHT22;5009;50.656;7.188;2023-10-13T12:45:41;23.70;93.00
9941;DHT22;5009;50.656;7.188;2023-10-13T12:48:26;23.70;92.50
9941;DHT22;5009;50.656;7.188;2023-10-13T12:51:10;23.70;92.50
9941;DHT22;5009;50.656;7.188;2023-10-13T12:53:49;23.60;92.10
9941;DHT22;5009;50.656;7.188;2023-10-13T12:56:15;23.60;92.30
9941;DHT22;5009;50.656;7.188;2023-10-13T12:58:41;23.60;92.20
9941;DHT22;5009;50.656;7.188;2023-10-13T13:01:07;23.60;92.40
9941;DHT22;5009;50.656;7.188;2023-10-13T13:03:34;23.60;92.30
9941;DHT22;5009;50.656;7.188;2023-10-13T13:06:00;23.60;92.60
9941;DHT22;5009;50.656;7.188;2023-10-13T13:08:33;23.60;92.10
9941;DHT22;5009;50.656;7.188;2023-10-13T13:11:01;23.70;92.40
9941;DHT22;5009;50.656;7.188;2023-10-13T13:13:27;23.70;92.50
9941;DHT22;5009;50.656;7.188;2023-10-13T13:15:52;23.70;92.20
9941;DHT22;5009;50.656;7.188;2023-10-13T13:18:18;23.70;92.00
9941;DHT22;5009;50.656;7.188;2023-10-13T13:20:45;23.70;92.20
9941;DHT22;5009;50.656;7.188;2023-10-13T13:23:20;23.60;92.30
9941;DHT22;5009;50.656;7.188;2023-10-13T13:25:46;23.60;92.00
9941;DHT22;5009;50.656;7.188;2023-10-13T13:28:12;23.50;92.20
9941;DHT22;5009;50.656;7.188;2023-10-13T13:30:39;23.40;92.30
9941;DHT22;5009;50.656;7.188;2023-10-13T13:33:05;23.40;92.30
9941;DHT22;5009;50.656;7.188;2023-10-13T13:35:38;23.40;92.30
9941;DHT22;5009;50.656;7.188;2023-10-13T13:38:04;23.40;92.40
9941;DHT22;5009;50.656;7.188;2023-10-13T13:40:42;23.40;92.60
9941;DHT22;5009;50.656;7.188;2023-10-13T13:43:14;23.40;92.70
9941;DHT22;5009;50.656;7.188;2023-10-13T13:45:59;23.30;92.40
9941;DHT22;5009;50.656;7.188;2023-10-13T13:48:29;23.30;92.40
9941;DHT22;5009;50.656;7.188;2023-10-13T13:50:54;23.30;92.50
9941;DHT22;5009;50.656;7.188;2023-10-13T13:53:31;23.30;92.70
9941;DHT22;5009;50.656;7.188;2023-10-13T13:56:03;23.30;92.60
9941;DHT22;5009;50.656;7.188;2023-10-13T13:58:29;23.30;92.20
9941;DHT22;5009;50.656;7.188;2023-10-13T14:01:02;23.30;92.40
9941;DHT22;5009;50.656;7.188;2023-10-13T14:03:51;23.30;92.60
9941;DHT22;5009;50.656;7.188;2023-10-13T14:06:22;23.30;92.70
9941;DHT22;5009;50.656;7.188;2023-10-13T14:08:56;23.30;92.60
9941;DHT22;5009;50.656;7.188;2023-10-13T14:11:26;23.30;92.60
9941;DHT22;5009;50.656;7.188;2023-10-13T14:14:05;23.30;92.80
9941;DHT22;5009;50.656;7.188;2023-10-13T14:16:38;23.30;93.00
9941;DHT22;5009;50.656;7.188;2023-10-13T14:19:10;23.30;93.30
9941;DHT22;5009;50.656;7.188;2023-10-13T14:21:35;23.30;93.30
9941;DHT22;5009;50.656;7.188;2023-10-13T14:24:01;23.30;93.40
9941;DHT22;5009;50.656;7.188;2023-10-13T14:26:28;23.20;93.60
9941;DHT22;5009;50.656;7.188;2023-10-13T14:28:55;23.20;93.40
9941;DHT22;5009;50.656;7.188;2023-10-13T14:31:29;23.20;93.40
9941;DHT22;5009;50.656;7.188;2023-10-13T14:33:55;23.10;92.90
9941;DHT22;5009;50.656;7.188;2023-10-13T14:36:22;23.10;93.00
9941;DHT22;5009;50.656;7.188;2023-10-13T14:38:48;23.20;93.00
9941;DHT22;5009;50.656;7.188;2023-10-13T14:41:17;23.20;93.00
9941;DHT22;5009;50.656;7.188;2023-10-13T14:43:46;23.10;93.20
9941;DHT22;5009;50.656;7.188;2023-10-13T14:46:19;23.10;92.80
9941;DHT22;5009;50.656;7.188;2023-10-13T14:48:54;23.10;93.00
9941;DHT22;5009;50.656;7.188;2023-10-13T14:51:20;23.10;92.50
9941;DHT22;5009;50.656;7.188;2023-10-13T14:53:47;23.10;92.80
9941;DHT22;5009;50.656;7.188;2023-10-13T14:56:14;23.10;92.70
9941;DHT22;5009;50.656;7.188;2023-10-13T14:58:40;23.20;92.90
9941;DHT22;5009;50.656;7.188;2023-10-13T15:01:14;23.10;92.80
9941;DHT22;5009;50.656;7.188;2023-10-13T15:03:44;23.10;92.50
9941;DHT22;5009;50.656;7.188;2023-10-13T15:06:17;23.00;92.50
9941;DHT22;5009;50.656;7.188;2023-10-13T15:08:44;23.10;92.30
9941;DHT22;5009;50.656;7.188;2023-10-13T15:11:12;23.00;92.20
9941;DHT22;5009;50.656;7.188;2023-10-13T15:13:40;23.00;92.20
9941;DHT22;5009;50.656;7.188;2023-10-13T15:16:32;23.00;92.30
9941;DHT22;5009;50.656;7.188;2023-10-13T15:19:01;23.00;92.60
9941;DHT22;5009;50.656;7.188;2023-10-13T15:21:30;23.00;92.60
9941;DHT22;5009;50.656;7.188;2023-10-13T15:24:05;23.00;92.60
9941;DHT22;5009;50.656;7.188;2023-10-13T15:26:45;23.00;92.40
9941;DHT22;5009;50.656;7.188;2023-10-13T15:29:18;22.90;92.40
9941;DHT22;5009;50.656;7.188;2023-10-13T15:31:50;22.90;92.50
9941;DHT22;5009;50.656;7.188;2023-10-13T15:34:25;22.90;92.60
9941;DHT22;5009;50.656;7.188;2023-10-13T15:36:55;22.90;92.50
9941;DHT22;5009;50.656;7.188;2023-10-13T15:39:22;22.90;92.40
9941;DHT22;5009;50.656;7.188;2023-10-13T15:41:54;22.80;92.20
9941;DHT22;5009;50.656;7.188;2023-10-13T15:44:24;22.80;92.60
9941;DHT22;5009;50.656;7.188;2023-10-13T15:46:54;22.80;92.70
9941;DHT22;5009;50.656;7.188;2023-10-13T15:49:21;22.80;92.70
9941;DHT22;5009;50.656;7.188;2023-10-13T15:51:46;22.80;92.70
9941;DHT22;5009;50.656;7.188;2023-10-13T15:54:12;22.80;92.90
9941;DHT22;5009;50.656;7.188;2023-10-13T15:56:44;22.70;92.90
9941;DHT22;5009;50.656;7.188;2023-10-13T15:59:10;22.70;93.00
9941;DHT22;5009;50.656;7.188;2023-10-13T16:01:36;22.70;93.30
9941;DHT22;5009;50.656;7.188;2023-10-13T16:04:04;22.70;93.30
9941;DHT22;5009;50.656;7.188;2023-10-13T16:06:40;22.70;93.20
9941;DHT22;5009;50.656;7.188;2023-10-13T16:09:07;22.60;93.50
9941;DHT22;5009;50.656;7.188;2023-10-13T16:11:45;22.60;93.30
9941;DHT22;5009;50.656;7.188;2023-10-13T16:14:12;22.60;93.40
9941;DHT22;5009;50.656;7.188;2023-10-13T16:16:41;22.50;93.50
9941;DHT22;5009;50.656;7.188;2023-10-13T16:19:15;22.50;93.60
9941;DHT22;5009;50.656;7.188;2023-10-13T16:21:43;22.50;93.80
9941;DHT22;5009;50.656;7.188;2023-10-13T16:24:10;22.50;94.00
9941;DHT22;5009;50.656;7.188;2023-10-13T16:26:37;22.40;94.20
9941;DHT22;5009;50.656;7.188;2023-10-13T16:29:03;22.40;94.70
9941;DHT22;5009;50.656;7.188;2023-10-13T16:31:28;22.40;94.60
9941;DHT22;5009;50.656;7.188;2023-10-13T16:33:54;22.40;94.60
9941;DHT22;5009;50.656;7.188;2023-10-13T16:36:21;22.40;94.70
9941;DHT22;5009;50.656;7.188;2023-10-13T16:38:49;22.40;94.90
9941;DHT22;5009;50.656;7.188;2023-10-13T16:41:15;22.30;95.10
9941;DHT22;5009;50.656;7.188;2023-10-13T16:43:41;22.30;95.40
9941;DHT22;5009;50.656;7.188;2023-10-13T16:46:13;22.20;96.20
9941;DHT22;5009;50.656;7.188;2023-10-13T16:48:41;22.20;96.80
9941;DHT22;5009;50.656;7.188;2023-10-13T16:51:07;22.20;97.00
9941;DHT22;5009;50.656;7.188;2023-10-13T16:53:39;22.20;97.70
9941;DHT22;5009;50.656;7.188;2023-10-13T16:56:05;22.20;98.40
9941;DHT22;5009;50.656;7.188;2023-10-13T16:58:30;22.10;99.20
9941;DHT22;5009;50.656;7.188;2023-10-13T17:00:56;22.10;98.70
9941;DHT22;5009;50.656;7.188;2023-10-13T17:03:22;22.00;98.80
9941;DHT22;5009;50.656;7.188;2023-10-13T17:05:58;22.00;98.80
9941;DHT22;5009;50.656;7.188;2023-10-13T17:08:27;22.00;98.80
9941;DHT22;5009;50.656;7.188;2023-10-13T17:11:10;22.00;99.60
9941;DHT22;5009;50.656;7.188;2023-10-13T17:13:37;21.90;99.90
9941;DHT22;5009;50.656;7.188;2023-10-13T17:16:17;21.90;99.90
9941;DHT22;5009;50.656;7.188;2023-10-13T17:18:47;21.80;99.90
9941;DHT22;5009;50.656;7.188;2023-10-13T17:21:21;21.70;99.90
9941;DHT22;5009;50.656;7.188;2023-10-13T17:23:49;21.60;99.90
9941;DHT22;5009;50.656;7.188;2023-10-13T17:26:16;21.60;99.90
9941;DHT22;5009;50.656;7.188;2023-10-13T17:28:42;21.50;99.90
9941;DHT22;5009;50.656;7.188;2023-10-13T17:31:08;21.40;99.90
9941;DHT22;5009;50.656;7.188;2023-10-13T17:33:36;21.40;99.90
9941;DHT22;5009;50.656;7.188;2023-10-13T17:36:08;21.40;99.90
9941;DHT22;5009;50.656;7.188;2023-10-13T17:38:34;21.40;99.90
9941;DHT22;5009;50.656;7.188;2023-10-13T17:41:00;21.40;99.90
9941;DHT22;5009;50.656;7.188;2023-10-13T17:43:26;21.40;99.90
9941;DHT22;5009;50.656;7.188;2023-10-13T17:45:52;21.30;99.90
9941;DHT22;5009;50.656;7.188;2023-10-13T17:48:17;21.40;99.90
9941;DHT22;5009;50.656;7.188;2023-10-13T17:50:43;21.30;99.90
9941;DHT22;5009;50.656;7.188;2023-10-13T17:53:08;21.30;99.90
9941;DHT22;5009;50.656;7.188;2023-10-13T17:55:39;21.30;99.70
9941;DHT22;5009;50.656;7.188;2023-10-13T17:58:04;21.30;99.40
9941;DHT22;5009;50.656;7.188;2023-10-13T18:00:34;21.30;99.30
9941;DHT22;5009;50.656;7.188;2023-10-13T18:03:00;21.30;99.20
9941;DHT22;5009;50.656;7.188;2023-10-13T18:05:29;21.40;99.30
9941;DHT22;5009;50.656;7.188;2023-10-13T18:08:01;21.40;99.50
9941;DHT22;5009;50.656;7.188;2023-10-13T18:10:27;21.40;99.90
9941;DHT22;5009;50.656;7.188;2023-10-13T18:12:53;21.40;99.90
9941;DHT22;5009;50.656;7.188;2023-10-13T18:15:18;21.40;99.70
9941;DHT22;5009;50.656;7.188;2023-10-13T18:17:48;21.30;99.60
9941;DHT22;5009;50.656;7.188;2023-10-13T18:20:15;21.30;99.30
9941;DHT22;5009;50.656;7.188;2023-10-13T18:22:45;21.40;99.20
9941;DHT22;5009;50.656;7.188;2023-10-13T18:25:11;21.30;99.40
9941;DHT22;5009;50.656;7.188;2023-10-13T18:27:40;21.30;99.60
9941;DHT22;5009;50.656;7.188;2023-10-13T18:30:11;21.30;99.70
9941;DHT22;5009;50.656;7.188;2023-10-13T18:32:41;21.30;99.50
9941;DHT22;5009;50.656;7.188;2023-10-13T18:35:08;21.30;99.80
9941;DHT22;5009;50.656;7.188;2023-10-13T18:37:37;21.30;99.90
9941;DHT22;5009;50.656;7.188;2023-10-13T18:40:03;21.30;99.90
9941;DHT22;5009;50.656;7.188;2023-10-13T18:42:32;21.30;99.90
9941;DHT22;5009;50.656;7.188;2023-10-13T18:44:58;21.20;99.80
9941;DHT22;5009;50.656;7.188;2023-10-13T18:47:23;21.30;99.90
9941;DHT22;5009;50.656;7.188;2023-10-13T18:49:49;21.30;99.90
9941;DHT22;5009;50.656;7.188;2023-10-13T18:52:14;21.30;99.80
9941;DHT22;5009;50.656;7.188;2023-10-13T18:54:40;21.30;99.90
9941;DHT22;5009;50.656;7.188;2023-10-13T18:57:06;21.30;99.90
9941;DHT22;5009;50.656;7.188;2023-10-13T18:59:31;21.30;99.90
9941;DHT22;5009;50.656;7.188;2023-10-13T19:01:59;21.30;99.90
9941;DHT22;5009;50.656;7.188;2023-10-13T19:04:26;21.40;99.80
9941;DHT22;5009;50.656;7.188;2023-10-13T19:06:52;21.40;99.50
9941;DHT22;5009;50.656;7.188;2023-10-13T19:09:17;21.40;99.80
9941;DHT22;5009;50.656;7.188;2023-10-13T19:11:50;21.40;99.80
9941;DHT22;5009;50.656;7.188;2023-10-13T19:14:16;21.40;99.40
9941;DHT22;5009;50.656;7.188;2023-10-13T19:16:42;21.40;99.40
9941;DHT22;5009;50.656;7.188;2023-10-13T19:19:11;21.40;99.30
9941;DHT22;5009;50.656;7.188;2023-10-13T19:21:37;21.40;99.20
9941;DHT22;5009;50.656;7.188;2023-10-13T19:24:03;21.40;98.80
9941;DHT22;5009;50.656;7.188;2023-10-13T19:26:29;21.40;98.90
9941;DHT22;5009;50.656;7.188;2023-10-13T19:28:59;21.40;99.40
9941;DHT22;5009;50.656;7.188;2023-10-13T19:31:27;21.40;99.40
9941;DHT22;5009;50.656;7.188;2023-10-13T19:33:54;21.40;99.30
9941;DHT22;5009;50.656;7.188;2023-10-13T19:36:20;21.30;99.60
9941;DHT22;5009;50.656;7.188;2023-10-13T19:38:52;21.30;98.60
9941;DHT22;5009;50.656;7.188;2023-10-13T19:41:21;21.30;98.20
9941;DHT22;5009;50.656;7.188;2023-10-13T19:43:55;21.30;97.90
9941;DHT22;5009;50.656;7.188;2023-10-13T19:46:26;21.20;97.80
9941;DHT22;5009;50.656;7.188;2023-10-13T19:48:52;21.20;97.60
9941;DHT22;5009;50.656;7.188;2023-10-13T19:51:19;21.30;97.50
9941;DHT22;5009;50.656;7.188;2023-10-13T19:53:52;21.30;97.00
9941;DHT22;5009;50.656;7.188;2023-10-13T19:56:18;21.30;97.10
9941;DHT22;5009;50.656;7.188;2023-10-13T19:58:47;21.30;96.80
9941;DHT22;5009;50.656;7.188;2023-10-13T20:01:21;21.40;97.00
9941;DHT22;5009;50.656;7.188;2023-10-13T20:03:51;21.30;96.90
9941;DHT22;5009;50.656;7.188;2023-10-13T20:06:25;21.30;96.80
9941;DHT22;5009;50.656;7.188;2023-10-13T20:08:52;21.30;95.80
9941;DHT22;5009;50.656;7.188;2023-10-13T20:11:21;21.30;95.30
9941;DHT22;5009;50.656;7.188;2023-10-13T20:13:54;21.40;95.10
9941;DHT22;5009;50.656;7.188;2023-10-13T20:16:22;21.40;95.00
9941;DHT22;5009;50.656;7.188;2023-10-13T20:18:50;21.40;94.80
9941;DHT22;5009;50.656;7.188;2023-10-13T20:21:20;21.50;94.60
9941;DHT22;5009;50.656;7.188;2023-10-13T20:23:52;21.50;94.50
9941;DHT22;5009;50.656;7.188;2023-10-13T20:26:19;21.50;94.20
9941;DHT22;5009;50.656;7.188;2023-10-13T20:28:45;21.50;94.20
9941;DHT22;5009;50.656;7.188;2023-10-13T20:31:11;21.60;94.40
9941;DHT22;5009;50.656;7.188;2023-10-13T20:33:38;21.60;94.40
9941;DHT22;5009;50.656;7.188;2023-10-13T20:36:05;21.60;94.00
9941;DHT22;5009;50.656;7.188;2023-10-13T20:38:31;21.60;94.00
9941;DHT22;5009;50.656;7.188;2023-10-13T20:40:58;21.60;94.00
9941;DHT22;5009;50.656;7.188;2023-10-13T20:43:25;21.60;93.80
9941;DHT22;5009;50.656;7.188;2023-10-13T20:45:51;21.60;94.00
9941;DHT22;5009;50.656;7.188;2023-10-13T20:48:16;21.60;93.80
9941;DHT22;5009;50.656;7.188;2023-10-13T20:50:42;21.70;93.80
9941;DHT22;5009;50.656;7.188;2023-10-13T20:53:08;21.70;93.90